createdAt,value
2022-08-08T04:02:57.432Z,101630.00
2022-08-08T04:05:29.155Z,101678.00
2022-08-08T04:07:59.113Z,101673.00
2022-08-08T04:10:32.404Z,101674.00
2022-08-08T04:13:01.086Z,101674.00
2022-08-08T04:15:38.854Z,101651.00
2022-08-08T04:18:09.338Z,101669.00
2022-08-08T04:20:44.731Z,101682.00
2022-08-08T04:23:15.320Z,101676.00
2022-08-08T04:25:43.905Z,101691.00
2022-08-08T04:28:35.189Z,101688.00
2022-08-08T04:31:04.622Z,101694.00
2022-08-08T04:33:41.822Z,101694.00
2022-08-08T04:36:10.329Z,101699.00
2022-08-08T04:38:38.806Z,101700.00
2022-08-08T04:41:11.107Z,101699.00
2022-08-08T04:43:49.877Z,101697.00
2022-08-08T04:46:22.193Z,101701.00
2022-08-08T04:48:54.581Z,101697.00
2022-08-08T04:51:28.193Z,101706.00
2022-08-08T04:54:40.066Z,101709.00
2022-08-08T04:56:59.128Z,101707.00
2022-08-08T04:59:29.998Z,101709.00
2022-08-08T05:01:59.449Z,101715.00
2022-08-08T05:04:30.430Z,101717.00
2022-08-08T05:06:58.737Z,101713.00
2022-08-08T05:09:26.923Z,101706.00
2022-08-08T05:11:57.516Z,101721.00
2022-08-08T05:14:25.704Z,101716.00
2022-08-08T05:17:00.979Z,101713.00
2022-08-08T05:20:09.656Z,101719.00
2022-08-08T05:22:19.370Z,101716.00
2022-08-08T05:24:48.834Z,101718.00
2022-08-08T05:27:17.685Z,101723.00
2022-08-08T05:29:45.850Z,101721.00
2022-08-08T05:32:19.933Z,101718.00
2022-08-08T05:35:04.492Z,101722.00
2022-08-08T05:37:52.811Z,101720.00
2022-08-08T05:40:27.901Z,101729.00
2022-08-08T05:43:38.277Z,101728.00
2022-08-08T05:46:02.999Z,101733.00
2022-08-08T05:48:36.080Z,101731.00
2022-08-08T05:51:15.144Z,101731.00
2022-08-08T05:54:26.177Z,101730.00
2022-08-08T05:56:42.705Z,101737.00
2022-08-08T05:59:59.975Z,101738.00
2022-08-08T06:02:38.796Z,101745.00
2022-08-08T06:05:34.323Z,101723.00
2022-08-08T06:08:09.684Z,101746.00
2022-08-08T06:10:41.443Z,101737.00
2022-08-08T06:13:12.418Z,101742.00
2022-08-08T06:15:50.840Z,101749.00
2022-08-08T06:18:25.402Z,101752.00
2022-08-08T06:20:57.276Z,101747.00
2022-08-08T06:23:52.756Z,101748.00
2022-08-08T06:26:38.540Z,101748.00
2022-08-08T06:29:26.355Z,101749.00
2022-08-08T06:32:10.211Z,101746.00
2022-08-08T06:35:11.654Z,101747.00
2022-08-08T06:37:40.569Z,101753.00
2022-08-08T06:40:16.573Z,101734.00
2022-08-08T06:42:54.467Z,101757.00
2022-08-08T06:45:24.433Z,101748.00
2022-08-08T06:48:00.981Z,101744.00
2022-08-08T06:50:33.793Z,101754.00
2022-08-08T06:53:16.966Z,101753.00
2022-08-08T06:56:01.985Z,101762.00
2022-08-08T06:58:33.339Z,101758.00
2022-08-08T07:01:24.443Z,101766.00
2022-08-08T07:04:40.475Z,101763.00
2022-08-08T07:06:51.576Z,101765.00
2022-08-08T07:09:41.391Z,101770.00
2022-08-08T07:12:30.546Z,101768.00
2022-08-08T07:15:05.761Z,101771.00
2022-08-08T07:18:01.815Z,101769.00
2022-08-08T07:20:40.508Z,101777.00
2022-08-08T07:23:28.950Z,101773.00
2022-08-08T07:26:29.013Z,101773.00
2022-08-08T07:29:08.002Z,101772.00
2022-08-08T07:31:41.499Z,101769.00
2022-08-08T07:34:20.275Z,101773.00
2022-08-08T07:37:12.123Z,101771.00
2022-08-08T07:39:45.668Z,101772.00
2022-08-08T07:42:33.430Z,101758.00
2022-08-08T07:45:04.039Z,101763.00
2022-08-08T07:47:38.383Z,101788.00
2022-08-08T07:50:09.770Z,101760.00
2022-08-08T07:52:43.950Z,101785.00
2022-08-08T07:55:20.094Z,101786.00
2022-08-08T07:58:05.862Z,101786.00
2022-08-08T08:00:42.081Z,101792.00
2022-08-08T08:03:20.326Z,101791.00
2022-08-08T08:05:53.511Z,101783.00
2022-08-08T08:08:27.855Z,101798.00
2022-08-08T08:10:59.038Z,101802.00
2022-08-08T08:14:06.056Z,101802.00
2022-08-08T08:16:32.410Z,101805.00
2022-08-08T08:19:03.700Z,101800.00
2022-08-08T08:21:52.477Z,101797.00
2022-08-08T08:24:30.823Z,101809.00
2022-08-08T08:27:02.675Z,101807.00
2022-08-08T08:29:31.822Z,101806.00
2022-08-08T08:32:05.388Z,101810.00
2022-08-08T08:34:34.090Z,101808.00
2022-08-08T08:37:08.481Z,101794.00
2022-08-08T08:39:59.466Z,101815.00
2022-08-08T08:42:31.759Z,101814.00
2022-08-08T08:45:21.432Z,101813.00
2022-08-08T08:47:54.874Z,101810.00
2022-08-08T08:50:33.547Z,101812.00
2022-08-08T08:53:28.349Z,101812.00
2022-08-08T08:56:01.158Z,101813.00
2022-08-08T08:58:39.679Z,101808.00
2022-08-08T09:01:09.912Z,101815.00
2022-08-08T09:03:46.736Z,101809.00
2022-08-08T09:06:28.186Z,101814.00
2022-08-08T09:09:05.169Z,101813.00
2022-08-08T09:11:47.107Z,101814.00
2022-08-08T09:14:25.949Z,101808.00
2022-08-08T09:16:55.592Z,101811.00
2022-08-08T09:22:02.628Z,101816.00
2022-08-08T09:22:25.938Z,101803.00
2022-08-08T09:24:58.596Z,101799.00
2022-08-08T09:27:56.261Z,101802.00
2022-08-08T09:30:20.250Z,101807.00
2022-08-08T09:33:11.857Z,101790.00
2022-08-08T09:35:49.936Z,101796.00
2022-08-08T09:38:53.823Z,101802.00
2022-08-08T09:42:14.732Z,101800.00
2022-08-08T09:44:43.738Z,101797.00
2022-08-08T09:48:02.675Z,101793.00
2022-08-08T09:50:13.988Z,101795.00
2022-08-08T09:52:56.370Z,101787.00
2022-08-08T09:55:51.888Z,101790.00
2022-08-08T09:58:25.909Z,101790.00
2022-08-08T10:01:02.123Z,101783.00
2022-08-08T10:03:39.615Z,101793.00
2022-08-08T10:06:16.170Z,101788.00
2022-08-08T10:08:47.375Z,101790.00
2022-08-08T10:12:27.929Z,101787.00
2022-08-08T10:14:10.816Z,101788.00
2022-08-08T10:16:58.447Z,101784.00
2022-08-08T10:19:46.086Z,101787.00
2022-08-08T10:22:27.750Z,101789.00
2022-08-08T10:25:07.236Z,101787.00
2022-08-08T10:27:45.000Z,101783.00
2022-08-08T10:30:16.732Z,101777.00
2022-08-08T10:33:02.600Z,101785.00
2022-08-08T10:36:20.762Z,101774.00
2022-08-08T10:38:21.723Z,101775.00
2022-08-08T10:40:54.611Z,101782.00
2022-08-08T10:43:23.769Z,101781.00
2022-08-08T10:45:56.251Z,101775.00
2022-08-08T10:48:37.585Z,101778.00
2022-08-08T10:51:24.372Z,101770.00
2022-08-08T10:53:57.204Z,101767.00
2022-08-08T10:56:34.800Z,101772.00
2022-08-08T10:59:09.257Z,101780.00
2022-08-08T11:01:39.895Z,101769.00
2022-08-08T11:04:11.796Z,101768.00
2022-08-08T11:06:42.000Z,101775.00
2022-08-08T11:09:20.155Z,101769.00
2022-08-08T11:12:05.160Z,101768.00
2022-08-08T11:14:56.802Z,101778.00
2022-08-08T11:17:58.594Z,101774.00
2022-08-08T11:20:23.740Z,101767.00
2022-08-08T11:22:57.990Z,101769.00
2022-08-08T11:25:43.648Z,101775.00
2022-08-08T11:28:25.719Z,101770.00
2022-08-08T11:31:00.182Z,101771.00
2022-08-08T11:33:51.752Z,101773.00
2022-08-08T11:36:18.392Z,101781.00
2022-08-08T11:38:54.616Z,101780.00
2022-08-08T11:41:24.974Z,101775.00
2022-08-08T11:43:58.634Z,101774.00
2022-08-08T11:46:31.414Z,101782.00
2022-08-08T11:49:03.946Z,101778.00
2022-08-08T11:51:39.785Z,101768.00
2022-08-08T11:54:31.271Z,101771.00
2022-08-08T11:57:16.683Z,101771.00
2022-08-08T12:00:01.367Z,101768.00
2022-08-08T12:02:34.223Z,101779.00
2022-08-08T12:05:12.577Z,101777.00
2022-08-08T12:07:51.334Z,101780.00
2022-08-08T12:10:22.660Z,101775.00
2022-08-08T12:13:03.086Z,101780.00
2022-08-08T12:15:42.350Z,101781.00
2022-08-08T12:18:21.312Z,101781.00
2022-08-08T12:20:55.109Z,101784.00
2022-08-08T12:23:43.399Z,101788.00
2022-08-08T12:26:28.258Z,101786.00
2022-08-08T12:29:21.266Z,101779.00
2022-08-08T12:32:03.702Z,101779.00
2022-08-08T12:34:48.904Z,101782.00
2022-08-08T12:37:22.273Z,101781.00
2022-08-08T12:40:01.954Z,101764.00
2022-08-08T12:42:33.686Z,101780.00
2022-08-08T12:45:20.035Z,101775.00
2022-08-08T12:48:17.910Z,101779.00
2022-08-08T12:50:57.482Z,101773.00
2022-08-08T12:53:35.178Z,101780.00
2022-08-08T12:56:18.111Z,101776.00
2022-08-08T12:58:51.300Z,101771.00
2022-08-08T13:01:24.415Z,101771.00
2022-08-08T13:04:18.528Z,101769.00
2022-08-08T13:06:55.969Z,101766.00
2022-08-08T13:10:00.607Z,101760.00
2022-08-08T13:12:32.482Z,101762.00
2022-08-08T13:15:05.044Z,101759.00
2022-08-08T13:18:08.297Z,101763.00
2022-08-08T13:20:27.562Z,101765.00
2022-08-08T13:25:51.186Z,101764.00
2022-08-08T13:28:32.902Z,101763.00
2022-08-08T13:31:03.944Z,101769.00
2022-08-08T13:33:41.885Z,101746.00
2022-08-08T13:36:12.709Z,101754.00
2022-08-08T13:38:42.371Z,101749.00
2022-08-08T13:41:16.496Z,101750.00
2022-08-08T13:43:47.231Z,101751.00
2022-08-08T13:46:27.135Z,101756.00
2022-08-08T13:49:11.219Z,101752.00
2022-08-08T13:52:08.598Z,101753.00
2022-08-08T13:54:44.213Z,101749.00
2022-08-08T13:57:15.832Z,101760.00
2022-08-08T13:59:48.633Z,101750.00
2022-08-08T14:02:21.105Z,101736.00
2022-08-08T14:05:04.986Z,101761.00
2022-08-08T14:07:52.431Z,101760.00
2022-08-08T14:10:32.995Z,101756.00
2022-08-08T14:13:30.687Z,101755.00
2022-08-08T14:16:03.374Z,101750.00
2022-08-08T14:18:35.639Z,101756.00
2022-08-08T14:21:12.541Z,101752.00
2022-08-08T14:24:07.598Z,101750.00
2022-08-08T14:26:42.897Z,101751.00
2022-08-08T14:29:30.119Z,101741.00
2022-08-08T14:32:09.406Z,101754.00
2022-08-08T14:34:42.160Z,101752.00
2022-08-08T14:37:13.206Z,101760.00
2022-08-08T14:39:51.147Z,101753.00
2022-08-08T14:42:35.331Z,101746.00
2022-08-08T14:45:09.886Z,101747.00
2022-08-08T14:47:52.082Z,101754.00
2022-08-08T14:50:38.823Z,101746.00
2022-08-08T14:53:14.211Z,101751.00
2022-08-08T14:55:43.936Z,101746.00
2022-08-08T14:58:16.714Z,101747.00
2022-08-08T15:00:50.024Z,101744.00
2022-08-08T15:03:18.975Z,101754.00
2022-08-08T15:05:54.243Z,101749.00
2022-08-08T15:08:35.411Z,101753.00
2022-08-08T15:11:11.131Z,101757.00
2022-08-08T15:14:01.080Z,101751.00
2022-08-08T15:16:34.448Z,101752.00
2022-08-08T15:19:04.783Z,101748.00
2022-08-08T15:21:33.138Z,101755.00
2022-08-08T15:24:03.187Z,101747.00
2022-08-08T15:26:32.655Z,101741.00
2022-08-08T15:29:01.288Z,101743.00
2022-08-08T15:32:03.760Z,101733.00
2022-08-08T15:34:31.579Z,101741.00
2022-08-08T15:37:03.122Z,101740.00
2022-08-08T15:39:38.016Z,101730.00
2022-08-08T15:42:18.129Z,101730.00
2022-08-08T15:44:58.414Z,101737.00
2022-08-08T15:47:27.015Z,101739.00
2022-08-08T15:49:55.323Z,101732.00
2022-08-08T15:52:28.754Z,101722.00
2022-08-08T15:54:57.240Z,101731.00
2022-08-08T15:57:27.574Z,101722.00
2022-08-08T16:00:26.094Z,101729.00
2022-08-08T16:02:53.517Z,101731.00
2022-08-08T16:05:24.000Z,101729.00
2022-08-08T16:07:54.332Z,101730.00
2022-08-08T16:13:05.870Z,101735.00
2022-08-08T16:13:34.467Z,101737.00
2022-08-08T16:18:42.434Z,101747.00
2022-08-08T16:21:25.907Z,101735.00
2022-08-08T16:23:55.870Z,101742.00
2022-08-08T16:26:33.728Z,101739.00
2022-08-08T16:29:08.220Z,101742.00
2022-08-08T16:31:41.797Z,101742.00
2022-08-08T16:34:10.973Z,101740.00
2022-08-08T16:36:40.797Z,101744.00
2022-08-08T16:39:28.194Z,101742.00
2022-08-08T16:42:00.921Z,101742.00
2022-08-08T16:44:33.980Z,101741.00
2022-08-08T16:47:21.991Z,101743.00
2022-08-08T16:50:13.597Z,101746.00
2022-08-08T16:55:04.482Z,101742.00
2022-08-08T16:55:52.855Z,101747.00
2022-08-08T16:58:21.937Z,101745.00
2022-08-08T17:00:56.637Z,101741.00
2022-08-08T17:04:00.638Z,101747.00
2022-08-08T17:06:36.062Z,101749.00
2022-08-08T17:09:04.184Z,101749.00
2022-08-08T17:11:39.155Z,101755.00
2022-08-08T17:14:18.631Z,101754.00
2022-08-08T17:16:57.378Z,101746.00
2022-08-08T17:19:27.365Z,101758.00
2022-08-08T17:21:57.383Z,101757.00
2022-08-08T17:24:27.614Z,101749.00
2022-08-08T17:26:58.071Z,101743.00
2022-08-08T17:29:27.425Z,101754.00
2022-08-08T17:31:57.944Z,101756.00
2022-08-08T17:34:52.944Z,101756.00
2022-08-08T17:37:15.396Z,101754.00
2022-08-08T17:40:11.356Z,101759.00
2022-08-08T17:42:36.245Z,101758.00
2022-08-08T17:45:06.506Z,101759.00
2022-08-08T17:47:40.679Z,101759.00
2022-08-08T17:50:10.893Z,101751.00
2022-08-08T17:52:43.246Z,101756.00
2022-08-08T17:56:06.498Z,101762.00
2022-08-08T17:58:01.822Z,101759.00
2022-08-08T18:00:31.372Z,101759.00
2022-08-08T18:03:08.834Z,101757.00
2022-08-08T18:05:49.547Z,101756.00
2022-08-08T18:08:37.924Z,101764.00
2022-08-08T18:11:14.618Z,101762.00
2022-08-08T18:13:46.198Z,101757.00
2022-08-08T18:16:20.551Z,101762.00
2022-08-08T18:18:56.291Z,101765.00
2022-08-08T18:21:58.795Z,101763.00
2022-08-08T18:24:22.078Z,101772.00
2022-08-08T18:26:54.868Z,101766.00
2022-08-08T18:29:30.260Z,101756.00
2022-08-08T18:32:04.896Z,101775.00
2022-08-08T18:34:36.489Z,101772.00
2022-08-08T18:37:08.493Z,101782.00
2022-08-08T18:39:41.987Z,101781.00
2022-08-08T18:42:15.753Z,101783.00
2022-08-08T18:44:55.987Z,101793.00
2022-08-08T18:47:27.430Z,101790.00
2022-08-08T18:49:59.797Z,101796.00
2022-08-08T18:52:30.033Z,101805.00
2022-08-08T18:55:00.935Z,101804.00
2022-08-08T18:57:41.631Z,101794.00
2022-08-08T19:00:16.482Z,101810.00
2022-08-08T19:02:55.910Z,101815.00
2022-08-08T19:05:32.421Z,101810.00
2022-08-08T19:08:25.429Z,101818.00
2022-08-08T19:10:58.629Z,101815.00
2022-08-08T19:13:53.910Z,101826.00
2022-08-08T19:16:19.178Z,101823.00
2022-08-08T19:18:53.114Z,101828.00
2022-08-08T19:21:32.813Z,101834.00
2022-08-08T19:24:05.773Z,101831.00
2022-08-08T19:26:35.745Z,101834.00
2022-08-08T19:29:07.174Z,101844.00
2022-08-08T19:31:36.129Z,101835.00
2022-08-08T19:34:35.491Z,101842.00
2022-08-08T19:36:58.510Z,101842.00
2022-08-08T19:39:30.859Z,101847.00
2022-08-08T19:42:05.021Z,101849.00
2022-08-08T19:44:46.002Z,101844.00
2022-08-08T19:47:24.603Z,101840.00
2022-08-08T19:50:00.380Z,101845.00
2022-08-08T19:52:35.203Z,101856.00
2022-08-08T19:55:11.379Z,101849.00
2022-08-08T19:57:41.169Z,101861.00
2022-08-08T20:00:30.197Z,101863.00
2022-08-08T20:03:00.626Z,101862.00
2022-08-08T20:06:14.255Z,101857.00
2022-08-08T20:08:28.494Z,101871.00
2022-08-08T20:11:00.594Z,101865.00
2022-08-08T20:14:31.783Z,101858.00
2022-08-08T20:16:18.004Z,101872.00
2022-08-08T20:18:53.684Z,101870.00
2022-08-08T20:21:25.372Z,101876.00
2022-08-08T20:23:58.024Z,101875.00
2022-08-08T20:26:29.821Z,101877.00
2022-08-08T20:29:02.545Z,101882.00
2022-08-08T20:32:02.810Z,101884.00
2022-08-08T20:34:29.369Z,101883.00
2022-08-08T20:36:58.940Z,101889.00
2022-08-08T20:39:39.221Z,101885.00
2022-08-08T20:42:18.920Z,101884.00
2022-08-08T20:44:48.734Z,101885.00
2022-08-08T20:47:23.699Z,101884.00
2022-08-08T20:49:54.589Z,101894.00
2022-08-08T20:52:28.846Z,101890.00
2022-08-08T20:54:58.685Z,101891.00
2022-08-08T20:57:27.938Z,101894.00
2022-08-08T20:59:56.621Z,101877.00
